Time;durP1;ratioP1;P1;durP2;ratioP2;P2;SDS_P1;SDS_P2;PMS_P1;PMS_P2;Temp;Humidity;BMP_temperature;BMP_pressure;BME280_temperature;BME280_humidity;BME280_pressure;Samples;Min_cycle;Max_cycle;Signal;HPM_P1;HPM_P2
2022/09/23 00:02:23;;;;;;;4.13;2.10;;;20.80;66.60;;;;;;5049103;28;20404;-57
2022/09/23 00:04:48;;;;;;;2.83;1.92;;;20.80;66.70;;;;;;5049366;28;20569;-57
2022/09/23 00:07:14;;;;;;;5.43;2.35;;;20.80;66.60;;;;;;5043145;28;20497;-57
2022/09/23 00:09:40;;;;;;;4.20;2.13;;;20.80;66.60;;;;;;5048101;28;20781;-57
2022/09/23 00:12:05;;;;;;;3.75;2.15;;;20.80;66.60;;;;;;5048112;28;20061;-57
2022/09/23 00:14:31;;;;;;;4.47;2.20;;;20.80;66.60;;;;;;5046421;28;20075;-57
2022/09/23 00:16:57;;;;;;;4.55;2.25;;;20.80;66.60;;;;;;5048443;28;20037;-57
2022/09/23 00:19:22;;;;;;;3.67;2.10;;;20.80;67.60;;;;;;5048377;28;20044;-57
2022/09/23 00:21:48;;;;;;;4.88;2.13;;;20.80;66.60;;;;;;5047787;28;20036;-57
2022/09/23 00:24:14;;;;;;;6.55;1.92;;;20.80;66.60;;;;;;5043051;28;20020;-57
2022/09/23 00:26:40;;;;;;;3.88;2.30;;;20.80;66.60;;;;;;5048131;28;20040;-57
2022/09/23 00:29:06;;;;;;;5.32;2.33;;;20.70;66.60;;;;;;5047304;28;20100;-57
2022/09/23 00:31:31;;;;;;;4.75;2.00;;;20.70;66.60;;;;;;5048188;28;20030;-57
2022/09/23 00:33:58;;;;;;;6.13;2.05;;;20.70;66.70;;;;;;5047694;28;20052;-57
2022/09/23 00:36:24;;;;;;;4.90;2.00;;;20.70;66.60;;;;;;5047630;28;20036;-57
2022/09/23 00:38:50;;;;;;;4.28;2.03;;;20.70;66.70;;;;;;5046453;28;20056;-57
2022/09/23 00:41:15;;;;;;;3.30;1.83;;;20.70;66.70;;;;;;5046449;28;20075;-57
2022/09/23 00:43:43;;;;;;;4.75;2.17;;;20.70;66.70;;;;;;5047858;28;20045;-57
2022/09/23 00:46:12;;;;;;;6.38;1.88;;;20.70;66.70;;;;;;5048211;28;20059;-57
2022/09/23 00:48:38;;;;;;;3.30;2.00;;;20.70;66.80;;;;;;5046287;28;20119;-57
2022/09/23 00:51:04;;;;;;;4.15;1.90;;;20.70;66.70;;;;;;5046582;28;20426;-57
2022/09/23 00:53:30;;;;;;;5.78;2.10;;;20.70;66.70;;;;;;5046647;28;20095;-57
2022/09/23 00:55:57;;;;;;;3.45;1.95;;;20.70;66.70;;;;;;5045817;28;20078;-57
2022/09/23 00:58:30;;;;;;;3.58;1.95;;;20.60;66.60;;;;;;5046729;28;20040;-57
2022/09/23 01:00:58;;;;;;;3.13;1.80;;;20.60;66.70;;;;;;5030254;28;20048;-58
2022/09/23 01:03:24;;;;;;;2.97;1.90;;;20.60;66.70;;;;;;5046241;28;20044;-57
2022/09/23 01:05:50;;;;;;;3.88;2.00;;;20.60;66.70;;;;;;5048176;28;20021;-57
2022/09/23 01:08:16;;;;;;;4.28;1.80;;;20.60;66.70;;;;;;5047054;28;20039;-56
2022/09/23 01:10:47;;;;;;;4.63;2.20;;;20.60;66.70;;;;;;5044890;28;20029;-57
2022/09/23 01:13:16;;;;;;;4.05;2.00;;;20.60;66.70;;;;;;5047526;28;20409;-57
2022/09/23 01:15:49;;;;;;;4.07;2.15;;;20.60;66.70;;;;;;5045518;28;20017;-56
2022/09/23 01:18:40;;;;;;;4.75;2.10;;;20.60;66.80;;;;;;5069183;28;20079;-58
2022/09/23 01:21:47;;;;;;;4.70;2.10;;;20.60;66.70;;;;;;5044186;28;20058;-57
2022/09/23 01:24:43;;;;;;;3.88;2.05;;;20.60;66.70;;;;;;5044118;28;20465;-57
2022/09/23 01:27:38;;;;;;;2.95;1.90;;;20.60;66.80;;;;;;5044085;28;20035;-57
2022/09/23 01:30:28;;;;;;;3.42;1.85;;;20.60;66.80;;;;;;4997986;28;20073;-57
2022/09/23 01:32:57;;;;;;;3.47;2.00;;;20.60;66.70;;;;;;4996946;28;20037;-57
2022/09/23 01:35:41;;;;;;;3.65;2.00;;;20.60;66.70;;;;;;5004347;28;20115;-57
2022/09/23 01:38:13;;;;;;;3.72;1.88;;;20.60;66.70;;;;;;4998968;28;20034;-56
2022/09/23 01:40:39;;;;;;;3.38;2.00;;;20.50;66.70;;;;;;5004965;28;20068;-57
2022/09/23 01:43:10;;;;;;;3.10;1.88;;;20.50;66.70;;;;;;4999423;28;20065;-57
2022/09/23 01:45:42;;;;;;;4.03;2.30;;;20.50;66.70;;;;;;4981850;28;20030;-57
2022/09/23 01:48:25;;;;;;;4.43;2.03;;;20.50;66.80;;;;;;4996399;28;20783;-57
2022/09/23 01:50:56;;;;;;;4.03;1.90;;;20.50;66.70;;;;;;5000453;28;20121;-57
2022/09/23 01:53:52;;;;;;;5.20;2.30;;;20.50;66.70;;;;;;5002216;28;20033;-57
2022/09/23 01:56:36;;;;;;;5.63;2.03;;;20.50;66.80;;;;;;4999733;28;20040;-57
2022/09/23 01:59:05;;;;;;;6.47;2.10;;;20.50;66.80;;;;;;4978744;28;20572;-57
2022/09/23 02:01:39;;;;;;;4.57;2.20;;;20.50;66.80;;;;;;4996499;28;20045;-57
2022/09/23 02:04:21;;;;;;;4.78;2.10;;;20.50;66.80;;;;;;5000444;28;20102;-57
2022/09/23 02:07:14;;;;;;;4.05;1.90;;;20.50;66.80;;;;;;5021275;28;20437;-57
2022/09/23 02:09:41;;;;;;;4.28;2.17;;;20.50;66.80;;;;;;5028742;28;20040;-57
2022/09/23 02:12:11;;;;;;;5.40;2.10;;;20.50;66.80;;;;;;5045067;28;20025;-57
2022/09/23 02:14:57;;;;;;;4.32;2.13;;;20.40;66.70;;;;;;5042204;28;20650;-57
2022/09/23 02:17:27;;;;;;;3.38;2.10;;;20.40;66.80;;;;;;5043028;28;20037;-57
2022/09/23 02:19:55;;;;;;;3.08;1.92;;;20.40;66.80;;;;;;5044720;28;20067;-58
2022/09/23 02:22:24;;;;;;;4.30;2.20;;;20.40;66.80;;;;;;5043450;28;20076;-57
2022/09/23 02:24:50;;;;;;;5.10;2.00;;;20.40;66.80;;;;;;5044156;28;20087;-57
2022/09/23 02:27:29;;;;;;;2.63;1.80;;;20.40;66.80;;;;;;5044677;28;20041;-57
2022/09/23 02:30:07;;;;;;;5.32;1.73;;;20.40;66.80;;;;;;5043816;28;20037;-57
2022/09/23 02:32:53;;;;;;;3.30;1.90;;;20.40;66.80;;;;;;5043151;28;20386;-57
2022/09/23 02:35:35;;;;;;;4.47;2.08;;;20.40;66.80;;;;;;5040294;28;20025;-57
2022/09/23 02:38:21;;;;;;;2.55;1.80;;;20.40;66.80;;;;;;5062828;28;20040;-57
2022/09/23 02:40:58;;;;;;;4.05;1.90;;;20.40;66.90;;;;;;5042478;28;20653;-57
2022/09/23 02:43:38;;;;;;;3.45;1.92;;;20.40;66.90;;;;;;5044779;28;20029;-57
2022/09/23 02:46:03;;;;;;;3.75;1.98;;;20.40;66.80;;;;;;5066567;28;20029;-57
2022/09/23 02:48:44;;;;;;;3.75;1.77;;;20.40;66.80;;;;;;5064499;28;20022;-57
2022/09/23 02:51:10;;;;;;;3.97;1.88;;;20.40;66.90;;;;;;5029603;28;20029;-57
2022/09/23 02:53:36;;;;;;;2.75;1.80;;;20.40;66.80;;;;;;5045623;28;20036;-57
2022/09/23 02:56:02;;;;;;;3.80;2.00;;;20.40;66.80;;;;;;5028554;28;20032;-57
2022/09/23 02:58:27;;;;;;;3.42;1.88;;;20.30;66.80;;;;;;5043258;28;20032;-57
2022/09/23 03:01:05;;;;;;;3.90;1.90;;;20.30;66.80;;;;;;5044076;28;20053;-57
2022/09/23 03:03:50;;;;;;;4.68;2.20;;;20.30;66.80;;;;;;5043491;28;20036;-57
2022/09/23 03:06:25;;;;;;;3.13;1.83;;;20.40;66.80;;;;;;5045875;28;20032;-57
2022/09/23 03:08:56;;;;;;;3.75;1.85;;;20.30;66.80;;;;;;5045876;28;20124;-57
2022/09/23 03:11:23;;;;;;;3.83;1.75;;;20.30;66.80;;;;;;5045284;28;20036;-57
2022/09/23 03:14:17;;;;;;;4.45;2.03;;;20.30;66.80;;;;;;5028810;28;20552;-57
2022/09/23 03:17:14;;;;;;;3.50;2.00;;;20.30;66.80;;;;;;5048776;28;20113;-57
2022/09/23 03:19:46;;;;;;;5.90;2.08;;;20.30;66.70;;;;;;5037409;28;20049;-57
2022/09/23 03:22:19;;;;;;;2.83;1.80;;;20.30;66.80;;;;;;5047478;28;20086;-57
2022/09/23 03:24:45;;;;;;;3.70;1.80;;;20.30;66.80;;;;;;5047690;28;20082;-57
2022/09/23 03:27:13;;;;;;;4.30;1.90;;;20.30;66.80;;;;;;5032370;28;20100;-57
2022/09/23 03:29:49;;;;;;;3.65;2.00;;;20.30;66.80;;;;;;5032014;28;20486;-57
2022/09/23 03:32:16;;;;;;;4.18;1.92;;;20.30;66.80;;;;;;5047441;28;20025;-58
2022/09/23 03:34:42;;;;;;;4.53;1.75;;;20.30;66.80;;;;;;5069876;28;20033;-57
2022/09/23 03:37:43;;;;;;;2.47;1.80;;;20.30;66.90;;;;;;5030186;28;20024;-57
2022/09/23 03:40:15;;;;;;;2.97;1.95;;;20.30;66.80;;;;;;4991457;28;20121;-57
2022/09/23 03:42:41;;;;;;;3.10;1.90;;;20.20;66.80;;;;;;5007156;28;20066;-57
2022/09/23 03:45:13;;;;;;;3.60;1.92;;;20.30;66.80;;;;;;5007941;28;20034;-57
2022/09/23 03:47:39;;;;;;;4.45;2.03;;;20.30;66.80;;;;;;4989601;28;20034;-57
2022/09/23 03:50:05;;;;;;;3.05;1.80;;;20.20;66.80;;;;;;5007983;28;20038;-57
2022/09/23 03:52:31;;;;;;;3.72;1.98;;;20.20;66.80;;;;;;5007947;28;20061;-57
2022/09/23 03:54:56;;;;;;;3.60;1.90;;;20.30;66.80;;;;;;4986618;28;20061;-57
2022/09/23 03:57:22;;;;;;;2.92;1.73;;;20.20;66.80;;;;;;5008206;28;20056;-57
2022/09/23 03:59:49;;;;;;;2.72;1.70;;;20.20;66.80;;;;;;5006845;28;20053;-57
2022/09/23 04:02:15;;;;;;;3.65;1.98;;;20.30;66.80;;;;;;5001516;28;20114;-58
2022/09/23 04:04:41;;;;;;;3.38;1.70;;;20.20;66.80;;;;;;5007614;28;20090;-57
2022/09/23 04:07:07;;;;;;;5.47;1.98;;;20.20;66.80;;;;;;5007468;28;20089;-57
2022/09/23 04:09:33;;;;;;;3.45;2.03;;;20.20;66.80;;;;;;5006789;28;20506;-57
2022/09/23 04:11:58;;;;;;;3.25;1.83;;;20.20;66.80;;;;;;4989319;28;20076;-57
2022/09/23 04:14:24;;;;;;;3.05;1.92;;;20.20;66.80;;;;;;5006832;28;20083;-57
2022/09/23 04:16:50;;;;;;;3.25;2.00;;;20.20;66.80;;;;;;5033341;28;20045;-57
2022/09/23 04:19:15;;;;;;;2.40;1.88;;;20.20;66.80;;;;;;5044862;28;20063;-57
2022/09/23 04:21:41;;;;;;;3.67;2.05;;;20.20;66.80;;;;;;5047156;28;20494;-57
2022/09/23 04:24:07;;;;;;;3.63;2.00;;;20.20;66.80;;;;;;5048104;28;20033;-57
2022/09/23 04:26:33;;;;;;;4.03;1.80;;;20.20;66.90;;;;;;5048342;28;20108;-57
2022/09/23 04:28:59;;;;;;;3.22;1.90;;;20.20;66.90;;;;;;5048531;28;20120;-57
2022/09/23 04:31:24;;;;;;;3.65;1.80;;;20.20;67.00;;;;;;5048286;28;20493;-57
2022/09/23 04:33:52;;;;;;;2.63;1.83;;;20.20;66.90;;;;;;5048352;28;20087;-57
2022/09/23 04:36:17;;;;;;;3.28;1.75;;;20.20;67.20;;;;;;5043294;28;20021;-57
2022/09/23 04:38:44;;;;;;;2.45;1.77;;;20.10;66.90;;;;;;5049035;28;20047;-57
2022/09/23 04:41:10;;;;;;;2.35;1.70;;;20.20;66.90;;;;;;5044475;28;20487;-57
2022/09/23 04:43:35;;;;;;;3.65;1.85;;;20.10;66.90;;;;;;5047372;28;20124;-57
2022/09/23 04:46:03;;;;;;;3.55;1.80;;;20.20;66.90;;;;;;5048361;28;20497;-57
2022/09/23 04:48:29;;;;;;;4.03;2.00;;;20.20;67.00;;;;;;5048164;28;20032;-56
2022/09/23 04:51:06;;;;;;;2.78;1.83;;;20.20;67.00;;;;;;5045264;28;20021;-57
2022/09/23 04:53:33;;;;;;;3.38;2.10;;;20.20;66.90;;;;;;5039583;28;20440;-57
2022/09/23 04:56:03;;;;;;;3.60;1.77;;;20.10;66.90;;;;;;5047374;28;20029;-57
2022/09/23 04:58:29;;;;;;;3.05;1.80;;;20.20;67.00;;;;;;5046961;28;20041;-57
2022/09/23 05:00:56;;;;;;;2.10;1.75;;;20.10;66.90;;;;;;5047583;28;20044;-57
2022/09/23 05:03:22;;;;;;;2.78;1.80;;;20.10;66.90;;;;;;5046451;28;20094;-57
2022/09/23 05:05:48;;;;;;;2.85;1.70;;;20.10;66.90;;;;;;5047872;28;20401;-57
2022/09/23 05:08:14;;;;;;;3.20;1.67;;;20.10;67.00;;;;;;5045236;28;20033;-57
2022/09/23 05:10:41;;;;;;;2.70;1.70;;;20.10;67.00;;;;;;5047611;28;20461;-57
2022/09/23 05:13:07;;;;;;;3.15;1.90;;;20.10;67.00;;;;;;5047354;28;20041;-57
2022/09/23 05:15:33;;;;;;;3.50;1.90;;;20.10;67.20;;;;;;5046585;28;20012;-57
2022/09/23 05:17:59;;;;;;;2.60;1.70;;;20.10;67.10;;;;;;5045975;28;20029;-58
2022/09/23 05:20:24;;;;;;;4.00;2.10;;;20.10;67.30;;;;;;5045471;28;20029;-57
2022/09/23 05:22:54;;;;;;;5.07;2.00;;;20.10;67.70;;;;;;5046353;28;20075;-57
2022/09/23 05:25:22;;;;;;;4.93;1.90;;;20.10;67.50;;;;;;5042773;28;20116;-57
2022/09/23 05:27:48;;;;;;;3.45;2.13;;;20.10;67.50;;;;;;5046305;28;20327;-57
2022/09/23 05:30:14;;;;;;;5.13;2.13;;;20.10;67.60;;;;;;5046969;28;20104;-57
2022/09/23 05:32:39;;;;;;;6.30;2.50;;;20.10;67.80;;;;;;5041883;28;20218;-57
2022/09/23 05:35:06;;;;;;;7.32;2.50;;;20.10;68.40;;;;;;5046802;28;20044;-57
2022/09/23 05:37:32;;;;;;;6.20;2.30;;;20.10;69.50;;;;;;5045830;28;20048;-57
2022/09/23 05:39:57;;;;;;;6.07;2.38;;;20.10;68.40;;;;;;5045740;28;20029;-57
2022/09/23 05:42:23;;;;;;;4.57;2.20;;;20.20;68.30;;;;;;5048387;28;20052;-58
2022/09/23 05:44:49;;;;;;;11.20;2.70;;;20.20;68.50;;;;;;5045730;28;20034;-57
2022/09/23 05:47:15;;;;;;;6.13;2.50;;;20.10;68.40;;;;;;5043052;28;20025;-57
2022/09/23 05:49:40;;;;;;;6.53;2.20;;;20.10;68.40;;;;;;5046695;28;20406;-58
2022/09/23 05:52:06;;;;;;;5.68;2.03;;;20.10;68.40;;;;;;5045621;28;20029;-57
2022/09/23 05:54:32;;;;;;;5.82;2.30;;;20.10;67.80;;;;;;5044343;28;20607;-57
2022/09/23 05:56:57;;;;;;;6.18;2.35;;;20.10;68.10;;;;;;5045251;28;20108;-57
2022/09/23 05:59:23;;;;;;;5.50;2.20;;;20.10;68.10;;;;;;5046250;28;20437;-57
2022/09/23 06:01:49;;;;;;;6.25;2.30;;;20.10;68.00;;;;;;5046722;28;20056;-57
2022/09/23 06:04:14;;;;;;;8.55;2.30;;;20.10;68.20;;;;;;5047273;28;20118;-57
2022/09/23 06:06:41;;;;;;;4.95;2.00;;;20.10;68.30;;;;;;5046224;28;21273;-57
2022/09/23 06:09:10;;;;;;;4.90;2.00;;;20.10;68.20;;;;;;5045676;28;20042;-57
2022/09/23 06:11:35;;;;;;;4.47;2.03;;;20.00;67.90;;;;;;5045542;28;20025;-58
2022/09/23 06:14:01;;;;;;;6.18;2.28;;;20.00;68.00;;;;;;5044629;28;20052;-57
2022/09/23 06:16:28;;;;;;;7.55;2.20;;;20.00;68.10;;;;;;5047025;28;20032;-57
2022/09/23 06:18:53;;;;;;;6.78;2.30;;;20.00;68.10;;;;;;5045099;28;20171;-57
2022/09/23 06:21:19;;;;;;;4.35;2.17;;;20.00;68.10;;;;;;5046667;28;20447;-57
2022/09/23 06:23:45;;;;;;;6.00;2.28;;;20.00;68.00;;;;;;5045383;28;20040;-58
2022/09/23 06:26:12;;;;;;;8.70;2.20;;;20.00;67.90;;;;;;5046751;28;20027;-57
2022/09/23 06:28:38;;;;;;;6.82;2.40;;;20.00;67.90;;;;;;5046214;28;20036;-57
2022/09/23 06:31:07;;;;;;;5.05;2.30;;;20.00;67.90;;;;;;5046506;28;20033;-57
2022/09/23 06:33:33;;;;;;;6.43;2.22;;;20.00;67.90;;;;;;5045898;28;20017;-57
2022/09/23 06:35:59;;;;;;;6.68;2.30;;;20.00;67.90;;;;;;5046049;28;20029;-57
2022/09/23 06:38:25;;;;;;;3.78;1.90;;;20.00;67.80;;;;;;5044483;28;20055;-58
2022/09/23 06:40:51;;;;;;;5.70;2.03;;;20.00;67.80;;;;;;5045876;28;20021;-57
2022/09/23 06:43:17;;;;;;;6.13;2.20;;;20.00;67.70;;;;;;5046358;28;20102;-57
2022/09/23 06:45:43;;;;;;;5.50;2.40;;;20.00;67.70;;;;;;5046233;28;20021;-57
2022/09/23 06:48:09;;;;;;;4.32;1.98;;;20.00;67.70;;;;;;5046129;28;20025;-57
2022/09/23 06:50:35;;;;;;;4.32;2.10;;;20.00;67.70;;;;;;5050574;28;20040;-57
2022/09/23 06:53:02;;;;;;;7.13;2.40;;;20.00;67.60;;;;;;5049807;28;20039;-58
2022/09/23 06:55:28;;;;;;;4.65;2.10;;;20.00;67.70;;;;;;5048486;28;20440;-57
2022/09/23 06:57:56;;;;;;;3.67;2.00;;;20.00;67.60;;;;;;5049838;28;20029;-57
2022/09/23 07:00:22;;;;;;;6.65;2.10;;;19.90;67.60;;;;;;5049471;28;20076;-57
2022/09/23 07:02:48;;;;;;;5.30;2.17;;;20.00;67.70;;;;;;5049289;28;20063;-57
2022/09/23 07:05:16;;;;;;;4.25;2.17;;;19.90;67.60;;;;;;5049974;28;20601;-57
2022/09/23 07:07:42;;;;;;;6.10;2.08;;;19.90;67.60;;;;;;5049754;28;20100;-57
2022/09/23 07:10:09;;;;;;;5.82;2.08;;;19.90;67.60;;;;;;5048677;28;20037;-57
2022/09/23 07:12:34;;;;;;;6.30;2.03;;;19.90;67.60;;;;;;5049532;28;20071;-58
2022/09/23 07:15:00;;;;;;;4.78;1.90;;;19.90;67.60;;;;;;5051487;28;20029;-57
2022/09/23 07:17:26;;;;;;;5.43;2.00;;;19.90;67.50;;;;;;5049714;28;20013;-57
2022/09/23 07:19:53;;;;;;;5.07;2.00;;;19.90;67.50;;;;;;5049778;28;20437;-57
2022/09/23 07:22:20;;;;;;;3.58;1.58;;;19.90;67.60;;;;;;5048191;28;20048;-58
2022/09/23 07:24:45;;;;;;;5.35;1.90;;;19.90;67.50;;;;;;5048547;28;20036;-57
2022/09/23 07:27:18;;;;;;;4.55;2.10;;;19.90;67.50;;;;;;5049769;28;20017;-58
2022/09/23 07:29:48;;;;;;;6.28;2.38;;;19.90;67.50;;;;;;5048374;28;20182;-57
2022/09/23 07:32:14;;;;;;;5.72;2.10;;;19.90;67.50;;;;;;5047095;28;20017;-57
2022/09/23 07:34:39;;;;;;;3.10;1.90;;;19.90;67.50;;;;;;5048471;28;20048;-57
2022/09/23 07:37:05;;;;;;;4.82;1.90;;;19.90;67.50;;;;;;5049654;28;20078;-58
2022/09/23 07:39:30;;;;;;;4.00;2.00;;;19.90;67.50;;;;;;5048879;28;20036;-57
2022/09/23 07:41:56;;;;;;;3.75;1.77;;;19.90;67.50;;;;;;5049397;28;20508;-58
2022/09/23 07:44:22;;;;;;;4.32;1.80;;;19.90;67.50;;;;;;5048464;28;20029;-57
2022/09/23 07:46:48;;;;;;;5.00;2.10;;;19.90;67.50;;;;;;5048809;28;20071;-57
2022/09/23 07:49:14;;;;;;;4.47;2.13;;;19.90;67.50;;;;;;5048974;28;20029;-57
2022/09/23 07:51:40;;;;;;;5.28;2.03;;;19.90;68.50;;;;;;5046456;28;20512;-57
2022/09/23 07:54:07;;;;;;;3.42;1.80;;;19.90;67.50;;;;;;5048652;28;20120;-57
2022/09/23 07:56:33;;;;;;;3.80;1.90;;;19.90;67.50;;;;;;5046608;28;20036;-57
2022/09/23 07:58:59;;;;;;;6.03;1.80;;;19.90;67.40;;;;;;5047813;28;20061;-57
2022/09/23 08:01:36;;;;;;;3.35;1.80;;;19.90;67.40;;;;;;5049643;28;20052;-57
2022/09/23 08:04:04;;;;;;;4.15;1.95;;;19.90;67.50;;;;;;5048265;28;20024;-57
2022/09/23 08:06:30;;;;;;;3.60;1.80;;;19.90;67.50;;;;;;5046662;28;20020;-57
2022/09/23 08:08:56;;;;;;;4.18;2.00;;;19.90;67.50;;;;;;5048130;28;20036;-58
2022/09/23 08:11:23;;;;;;;3.85;1.80;;;19.90;67.50;;;;;;5048289;28;20074;-57
2022/09/23 08:13:49;;;;;;;3.83;1.92;;;19.80;67.40;;;;;;5047508;28;20057;-57
2022/09/23 08:16:15;;;;;;;5.63;2.13;;;19.90;67.50;;;;;;5048832;28;20049;-57
2022/09/23 08:18:43;;;;;;;4.32;2.10;;;19.80;67.40;;;;;;5048545;28;20043;-57
2022/09/23 08:21:09;;;;;;;3.95;1.90;;;19.80;67.40;;;;;;5049473;28;20039;-57
2022/09/23 08:23:35;;;;;;;3.85;1.85;;;19.90;67.40;;;;;;5047270;28;20033;-57
2022/09/23 08:26:03;;;;;;;3.88;1.90;;;19.80;67.40;;;;;;5048362;28;20037;-57
2022/09/23 08:28:29;;;;;;;4.20;1.90;;;19.80;67.40;;;;;;5046655;28;20017;-57
2022/09/23 08:30:54;;;;;;;5.50;1.90;;;19.80;67.40;;;;;;5048252;28;20051;-57
2022/09/23 08:33:20;;;;;;;4.63;2.00;;;19.80;67.40;;;;;;5048429;28;20381;-57
2022/09/23 08:35:46;;;;;;;4.28;1.70;;;19.80;67.40;;;;;;5048630;28;20041;-57
2022/09/23 08:38:11;;;;;;;2.90;1.77;;;19.80;67.40;;;;;;5046813;28;20052;-57
2022/09/23 08:40:39;;;;;;;3.80;1.60;;;19.80;67.40;;;;;;5047681;28;20136;-57
2022/09/23 08:43:06;;;;;;;4.47;1.90;;;19.80;68.40;;;;;;5046891;28;20059;-58
2022/09/23 08:45:33;;;;;;;4.97;1.95;;;19.80;67.40;;;;;;5048361;28;20021;-57
2022/09/23 08:48:13;;;;;;;5.28;1.90;;;19.80;67.40;;;;;;5046844;28;20028;-57
2022/09/23 08:50:46;;;;;;;3.17;1.77;;;19.80;67.30;;;;;;5045219;28;20037;-57
2022/09/23 08:53:25;;;;;;;5.47;1.90;;;19.80;67.40;;;;;;5046071;28;20013;-57
2022/09/23 08:55:52;;;;;;;4.60;1.90;;;19.80;67.40;;;;;;5045874;28;20036;-57
2022/09/23 08:58:47;;;;;;;3.17;1.70;;;19.80;67.40;;;;;;5046080;28;20047;-58
2022/09/23 09:01:12;;;;;;;5.57;1.90;;;19.80;67.30;;;;;;5045947;28;20192;-57
2022/09/23 09:03:50;;;;;;;7.15;2.00;;;19.80;67.30;;;;;;5048048;28;20116;-58
2022/09/23 09:06:51;;;;;;;4.28;1.98;;;19.80;67.30;;;;;;5046869;28;20389;-58
2022/09/23 09:09:31;;;;;;;3.85;1.80;;;19.80;67.30;;;;;;5045432;28;20747;-57
2022/09/23 09:12:09;;;;;;;2.83;1.83;;;19.80;67.30;;;;;;5041918;28;20056;-57
2022/09/23 09:15:00;;;;;;;3.20;1.95;;;19.80;67.30;;;;;;5045769;28;20142;-57
2022/09/23 09:17:35;;;;;;;3.78;2.00;;;19.80;67.30;;;;;;5046464;28;20417;-57
2022/09/23 09:20:17;;;;;;;4.47;2.10;;;19.80;67.30;;;;;;5048569;28;20040;-57
2022/09/23 09:22:52;;;;;;;4.75;1.90;;;19.80;67.30;;;;;;5047105;28;20037;-57
2022/09/23 09:25:35;;;;;;;3.20;1.60;;;19.80;67.20;;;;;;5045836;28;20042;-57
2022/09/23 09:28:02;;;;;;;3.35;1.90;;;19.80;67.30;;;;;;5045919;28;20091;-57
2022/09/23 09:30:27;;;;;;;2.70;1.70;;;19.80;67.30;;;;;;5044958;28;20029;-58
2022/09/23 09:33:05;;;;;;;5.13;1.92;;;19.80;67.40;;;;;;5046638;28;20697;-57
2022/09/23 09:35:36;;;;;;;4.55;1.98;;;19.80;67.40;;;;;;5045907;28;20049;-58
2022/09/23 09:38:02;;;;;;;3.55;1.80;;;19.80;67.30;;;;;;5045661;28;20048;-57
2022/09/23 09:40:28;;;;;;;5.03;1.90;;;19.80;67.40;;;;;;5047095;28;20112;-57
2022/09/23 09:42:55;;;;;;;4.25;1.90;;;19.80;68.60;;;;;;5047195;28;20128;-57
2022/09/23 09:45:58;;;;;;;4.70;1.80;;;19.90;67.60;;;;;;5047219;28;20025;-57
2022/09/23 09:48:30;;;;;;;3.50;1.92;;;19.80;67.60;;;;;;5004243;28;20050;-57
2022/09/23 09:50:55;;;;;;;4.32;2.00;;;19.80;67.70;;;;;;4989017;28;20584;-58
2022/09/23 09:53:26;;;;;;;5.60;1.83;;;19.80;67.60;;;;;;5005386;28;20077;-57
2022/09/23 09:56:02;;;;;;;4.00;2.00;;;19.90;67.60;;;;;;5005528;28;20038;-57
2022/09/23 09:58:44;;;;;;;4.25;1.90;;;19.90;67.70;;;;;;5009830;28;20581;-58
2022/09/23 10:01:20;;;;;;;3.42;1.85;;;19.90;67.80;;;;;;5005208;28;20049;-57
2022/09/23 10:03:46;;;;;;;4.32;1.80;;;19.90;67.80;;;;;;4987732;28;20042;-58
2022/09/23 10:06:13;;;;;;;5.55;2.00;;;19.80;67.60;;;;;;5004792;28;20038;-58
2022/09/23 10:08:39;;;;;;;3.75;1.80;;;19.90;67.80;;;;;;5005222;28;20026;-57
2022/09/23 10:11:15;;;;;;;5.15;1.90;;;19.90;67.80;;;;;;5005724;28;20038;-57
2022/09/23 10:13:41;;;;;;;4.78;1.80;;;19.80;67.70;;;;;;5005191;28;20515;-58
2022/09/23 10:16:08;;;;;;;2.92;1.83;;;19.80;67.90;;;;;;4988383;28;20037;-57
2022/09/23 10:18:45;;;;;;;5.13;2.00;;;19.80;67.70;;;;;;5003919;28;20068;-57
2022/09/23 10:21:13;;;;;;;4.85;1.88;;;19.80;67.70;;;;;;5005241;28;20518;-57
2022/09/23 10:23:54;;;;;;;4.72;1.70;;;19.80;67.70;;;;;;5015376;28;20554;-57
2022/09/23 10:26:33;;;;;;;3.35;1.83;;;19.80;67.80;;;;;;5043574;28;20136;-57
2022/09/23 10:29:03;;;;;;;4.97;1.70;;;19.80;67.70;;;;;;5046245;28;20112;-58
2022/09/23 10:31:33;;;;;;;3.88;1.67;;;19.80;67.70;;;;;;5045685;28;20028;-57
2022/09/23 10:34:27;;;;;;;3.22;1.67;;;19.80;67.80;;;;;;5046123;28;20518;-58
2022/09/23 10:37:06;;;;;;;3.45;1.83;;;19.80;67.80;;;;;;5046819;28;20033;-57
2022/09/23 10:48:37;;;;;;;4.00;1.92;;;19.80;67.80;;;;;;5054037;28;20091;-58
2022/09/23 10:51:50;;;;;;;5.43;1.70;;;19.80;67.90;;;;;;5043532;28;20108;-57
2022/09/23 10:54:18;;;;;;;3.20;1.75;;;19.80;68.00;;;;;;5013619;28;20058;-58
2022/09/23 10:56:47;;;;;;;7.80;2.10;;;19.80;68.20;;;;;;5011669;28;20049;-58
2022/09/23 10:59:42;;;;;;;3.33;1.75;;;19.90;68.30;;;;;;4996701;28;20491;-57
2022/09/23 11:02:28;;;;;;;3.42;2.00;;;19.80;68.30;;;;;;4991450;28;20029;-57
2022/09/23 11:05:02;;;;;;;5.32;2.10;;;19.80;68.30;;;;;;5019266;28;20041;-58
2022/09/23 11:07:37;;;;;;;4.47;2.00;;;19.80;68.10;;;;;;5013400;28;21986;-57
2022/09/23 11:10:16;;;;;;;5.43;1.85;;;19.80;68.10;;;;;;5015988;28;20044;-57
2022/09/23 11:13:00;;;;;;;4.75;2.00;;;19.80;68.20;;;;;;5016516;28;20585;-58
2022/09/23 11:15:36;;;;;;;5.85;2.13;;;19.80;68.30;;;;;;4996236;28;20037;-57
2022/09/23 11:18:28;;;;;;;5.18;1.80;;;19.80;68.30;;;;;;5000525;28;20465;-57
2022/09/23 11:21:21;;;;;;;4.45;2.17;;;19.80;68.30;;;;;;5017192;28;20477;-58
2022/09/23 11:23:56;;;;;;;5.35;2.20;;;19.80;68.30;;;;;;5001941;28;20033;-57
2022/09/23 11:26:29;;;;;;;5.90;2.10;;;19.80;68.10;;;;;;5023321;28;20113;-57
2022/09/23 11:29:10;;;;;;;5.07;2.00;;;19.80;68.40;;;;;;5020972;28;20032;-57
2022/09/23 11:31:52;;;;;;;4.18;2.10;;;19.70;68.00;;;;;;5043245;28;20025;-58
2022/09/23 11:34:26;;;;;;;5.97;2.03;;;19.80;68.20;;;;;;5044422;28;20043;-57
2022/09/23 11:37:01;;;;;;;5.50;2.05;;;19.80;68.00;;;;;;5050426;28;20021;-57
2022/09/23 11:39:52;;;;;;;4.28;2.05;;;19.80;68.30;;;;;;5046466;28;20048;-57
2022/09/23 11:42:23;;;;;;;3.83;1.60;;;19.80;68.30;;;;;;5047829;28;20033;-58
2022/09/23 11:45:05;;;;;;;5.80;2.15;;;19.80;68.30;;;;;;5043794;28;20021;-57
2022/09/23 11:47:41;;;;;;;3.75;2.00;;;19.80;68.30;;;;;;5047870;28;20512;-57
2022/09/23 11:50:39;;;;;;;3.60;1.90;;;19.80;68.40;;;;;;5048113;28;20033;-57
2022/09/23 11:53:11;;;;;;;4.38;1.80;;;19.80;68.50;;;;;;5047711;28;20081;-57
2022/09/23 11:55:43;;;;;;;4.55;1.80;;;19.80;68.30;;;;;;5047234;28;20024;-57
2022/09/23 11:58:20;;;;;;;3.55;1.80;;;19.70;68.20;;;;;;5030856;28;20033;-58
2022/09/23 12:00:53;;;;;;;4.00;2.00;;;19.80;68.50;;;;;;5054142;28;20030;-57
2022/09/23 12:03:39;;;;;;;4.13;1.83;;;19.80;68.20;;;;;;5046793;28;20637;-57
2022/09/23 12:06:17;;;;;;;4.53;2.10;;;19.80;68.50;;;;;;5047928;28;20511;-57
2022/09/23 12:08:43;;;;;;;4.97;1.95;;;19.80;68.50;;;;;;5047415;28;20029;-58
2022/09/23 12:11:21;;;;;;;4.70;2.10;;;19.80;68.30;;;;;;5048486;28;20102;-57
2022/09/23 12:13:55;;;;;;;3.97;1.90;;;19.70;68.40;;;;;;5049926;28;20021;-57
2022/09/23 12:16:43;;;;;;;4.78;2.00;;;19.80;68.60;;;;;;5047289;28;20066;-57
2022/09/23 12:19:37;;;;;;;5.72;2.13;;;19.80;68.50;;;;;;5044701;28;20039;-57
2022/09/23 12:22:25;;;;;;;5.32;2.00;;;19.70;68.30;;;;;;5047962;28;20482;-57
2022/09/23 12:24:57;;;;;;;4.15;2.15;;;19.80;68.60;;;;;;5044304;28;20410;-57
2022/09/23 12:27:29;;;;;;;5.32;2.03;;;19.70;68.50;;;;;;5045493;28;20212;-57
2022/09/23 12:30:00;;;;;;;4.65;2.40;;;19.80;68.50;;;;;;5026999;28;20401;-58
2022/09/23 12:32:26;;;;;;;4.65;2.15;;;19.80;68.50;;;;;;5046024;28;20021;-57
2022/09/23 12:34:52;;;;;;;4.35;1.90;;;19.80;68.50;;;;;;5048759;28;20079;-57
2022/09/23 12:37:34;;;;;;;5.72;2.20;;;19.80;68.50;;;;;;5047297;28;20032;-58
2022/09/23 12:40:08;;;;;;;4.07;2.10;;;19.80;69.30;;;;;;5046626;28;20529;-57
2022/09/23 12:42:34;;;;;;;5.20;2.40;;;19.80;68.30;;;;;;5047490;28;20017;-57
2022/09/23 12:45:33;;;;;;;4.13;1.92;;;19.80;68.30;;;;;;5046581;28;20102;-58
2022/09/23 12:48:19;;;;;;;5.55;2.10;;;19.80;68.30;;;;;;5007314;28;20042;-57
2022/09/23 12:50:55;;;;;;;3.88;2.03;;;19.80;68.30;;;;;;4922975;29;20040;-58
2022/09/23 12:53:32;;;;;;;6.22;2.50;;;19.80;68.30;;;;;;4927168;29;20440;-57
2022/09/23 12:55:58;;;;;;;3.38;2.08;;;19.80;68.30;;;;;;4928872;29;20525;-57
2022/09/23 12:58:42;;;;;;;4.35;2.17;;;19.80;68.30;;;;;;4927421;29;20528;-58
2022/09/23 13:01:19;;;;;;;6.32;2.00;;;19.80;68.40;;;;;;4926735;29;20110;-57
2022/09/23 13:06:52;;;;;;;3.85;2.13;;;19.80;68.60;;;;;;4927733;29;20564;-57
2022/09/23 13:09:26;;;;;;;4.07;2.05;;;19.80;68.50;;;;;;4928060;29;20500;-57
2022/09/23 13:11:52;;;;;;;4.85;2.13;;;19.80;68.50;;;;;;4924145;29;20496;-57
2022/09/23 13:14:20;;;;;;;4.32;2.00;;;19.90;68.50;;;;;;4924682;29;20040;-58
2022/09/23 13:16:46;;;;;;;4.88;2.25;;;19.90;68.60;;;;;;4925931;29;20444;-57
2022/09/23 13:19:27;;;;;;;5.03;2.33;;;19.80;68.70;;;;;;4925146;29;20043;-57
2022/09/23 13:21:57;;;;;;;4.45;2.13;;;19.90;68.50;;;;;;4924467;29;20115;-57
2022/09/23 13:24:31;;;;;;;4.45;2.30;;;19.90;68.60;;;;;;4943050;29;20039;-57